sensor_id;sensor_type;location;lat;lon;timestamp;P1;durP1;ratioP1;P2;durP2;ratioP2
32445;SDS011;18899;50.748;7.102;2022-09-13T00:00:03;4.15;;;2.47;;
32445;SDS011;18899;50.748;7.102;2022-09-13T00:02:30;4.10;;;2.90;;
32445;SDS011;18899;50.748;7.102;2022-09-13T00:04:56;5.80;;;2.70;;
32445;SDS011;18899;50.748;7.102;2022-09-13T00:07:21;4.45;;;2.50;;
32445;SDS011;18899;50.748;7.102;2022-09-13T00:09:47;8.00;;;3.28;;
32445;SDS011;18899;50.748;7.102;2022-09-13T00:12:12;4.43;;;2.80;;
32445;SDS011;18899;50.748;7.102;2022-09-13T00:14:38;4.97;;;2.85;;
32445;SDS011;18899;50.748;7.102;2022-09-13T00:17:03;4.78;;;3.15;;
32445;SDS011;18899;50.748;7.102;2022-09-13T00:19:29;3.72;;;2.63;;
32445;SDS011;18899;50.748;7.102;2022-09-13T00:21:54;6.10;;;2.70;;
32445;SDS011;18899;50.748;7.102;2022-09-13T00:24:20;4.55;;;2.70;;
32445;SDS011;18899;50.748;7.102;2022-09-13T00:26:45;6.43;;;2.75;;
32445;SDS011;18899;50.748;7.102;2022-09-13T00:29:11;5.05;;;2.88;;
32445;SDS011;18899;50.748;7.102;2022-09-13T00:31:36;3.88;;;2.80;;
32445;SDS011;18899;50.748;7.102;2022-09-13T00:34:02;3.63;;;2.85;;
32445;SDS011;18899;50.748;7.102;2022-09-13T00:36:28;4.95;;;2.90;;
32445;SDS011;18899;50.748;7.102;2022-09-13T00:38:53;6.93;;;2.80;;
32445;SDS011;18899;50.748;7.102;2022-09-13T00:41:19;4.80;;;2.90;;
32445;SDS011;18899;50.748;7.102;2022-09-13T00:43:50;4.53;;;3.17;;
32445;SDS011;18899;50.748;7.102;2022-09-13T00:46:22;4.60;;;2.83;;
32445;SDS011;18899;50.748;7.102;2022-09-13T00:49:02;6.82;;;3.10;;
32445;SDS011;18899;50.748;7.102;2022-09-13T00:51:53;3.63;;;2.67;;
32445;SDS011;18899;50.748;7.102;2022-09-13T00:54:23;5.55;;;2.90;;
32445;SDS011;18899;50.748;7.102;2022-09-13T00:56:54;5.55;;;3.30;;
32445;SDS011;18899;50.748;7.102;2022-09-13T00:59:27;5.37;;;3.00;;
32445;SDS011;18899;50.748;7.102;2022-09-13T01:01:58;4.47;;;3.20;;
32445;SDS011;18899;50.748;7.102;2022-09-13T01:04:26;5.03;;;3.20;;
32445;SDS011;18899;50.748;7.102;2022-09-13T01:06:55;5.57;;;3.03;;
32445;SDS011;18899;50.748;7.102;2022-09-13T01:09:24;3.90;;;2.80;;
32445;SDS011;18899;50.748;7.102;2022-09-13T01:11:52;4.50;;;2.95;;
32445;SDS011;18899;50.748;7.102;2022-09-13T01:14:28;4.00;;;2.75;;
32445;SDS011;18899;50.748;7.102;2022-09-13T01:16:55;7.32;;;3.08;;
32445;SDS011;18899;50.748;7.102;2022-09-13T01:19:20;3.90;;;2.33;;
32445;SDS011;18899;50.748;7.102;2022-09-13T01:24:54;5.43;;;2.30;;
32445;SDS011;18899;50.748;7.102;2022-09-13T01:33:38;5.45;;;3.17;;
32445;SDS011;18899;50.748;7.102;2022-09-13T01:36:27;4.40;;;2.92;;
32445;SDS011;18899;50.748;7.102;2022-09-13T01:47:43;4.70;;;2.80;;
32445;SDS011;18899;50.748;7.102;2022-09-13T01:53:21;4.53;;;3.13;;
32445;SDS011;18899;50.748;7.102;2022-09-13T02:03:57;3.53;;;2.67;;
32445;SDS011;18899;50.748;7.102;2022-09-13T02:06:25;5.05;;;3.08;;
32445;SDS011;18899;50.748;7.102;2022-09-13T02:08:57;4.18;;;2.70;;
32445;SDS011;18899;50.748;7.102;2022-09-13T02:11:25;6.70;;;3.08;;
32445;SDS011;18899;50.748;7.102;2022-09-13T02:13:54;3.95;;;2.97;;
32445;SDS011;18899;50.748;7.102;2022-09-13T02:16:36;3.85;;;2.58;;
32445;SDS011;18899;50.748;7.102;2022-09-13T02:19:06;5.53;;;2.67;;
32445;SDS011;18899;50.748;7.102;2022-09-13T02:21:46;3.00;;;2.45;;
32445;SDS011;18899;50.748;7.102;2022-09-13T02:24:22;5.07;;;2.90;;
32445;SDS011;18899;50.748;7.102;2022-09-13T02:26:52;8.15;;;3.30;;
32445;SDS011;18899;50.748;7.102;2022-09-13T02:29:19;8.15;;;3.55;;
32445;SDS011;18899;50.748;7.102;2022-09-13T02:31:55;8.45;;;3.30;;
32445;SDS011;18899;50.748;7.102;2022-09-13T02:34:31;7.07;;;3.00;;
32445;SDS011;18899;50.748;7.102;2022-09-13T02:37:03;5.70;;;3.40;;
32445;SDS011;18899;50.748;7.102;2022-09-13T02:39:31;3.88;;;2.88;;
32445;SDS011;18899;50.748;7.102;2022-09-13T02:42:07;3.95;;;2.63;;
32445;SDS011;18899;50.748;7.102;2022-09-13T02:44:44;5.18;;;3.10;;
32445;SDS011;18899;50.748;7.102;2022-09-13T02:50:18;5.18;;;2.63;;
32445;SDS011;18899;50.748;7.102;2022-09-13T03:01:14;6.68;;;3.40;;
32445;SDS011;18899;50.748;7.102;2022-09-13T03:03:39;6.35;;;2.97;;
32445;SDS011;18899;50.748;7.102;2022-09-13T03:06:05;3.92;;;2.45;;
32445;SDS011;18899;50.748;7.102;2022-09-13T03:08:31;4.50;;;2.60;;
32445;SDS011;18899;50.748;7.102;2022-09-13T03:16:32;4.40;;;2.72;;
32445;SDS011;18899;50.748;7.102;2022-09-13T03:21:36;6.05;;;3.15;;
32445;SDS011;18899;50.748;7.102;2022-09-13T03:24:23;6.22;;;3.25;;
32445;SDS011;18899;50.748;7.102;2022-09-13T03:29:44;3.38;;;2.60;;
32445;SDS011;18899;50.748;7.102;2022-09-13T03:37:40;5.43;;;3.30;;
32445;SDS011;18899;50.748;7.102;2022-09-13T03:40:14;5.35;;;3.08;;
32445;SDS011;18899;50.748;7.102;2022-09-13T03:43:01;9.70;;;3.53;;
32445;SDS011;18899;50.748;7.102;2022-09-13T03:45:42;5.90;;;2.58;;
32445;SDS011;18899;50.748;7.102;2022-09-13T03:48:12;4.60;;;2.88;;
32445;SDS011;18899;50.748;7.102;2022-09-13T03:50:39;4.68;;;3.13;;
32445;SDS011;18899;50.748;7.102;2022-09-13T03:53:06;6.60;;;3.22;;
32445;SDS011;18899;50.748;7.102;2022-09-13T03:55:37;5.20;;;3.33;;
32445;SDS011;18899;50.748;7.102;2022-09-13T03:58:05;6.70;;;2.65;;
32445;SDS011;18899;50.748;7.102;2022-09-13T04:00:31;6.43;;;3.10;;
32445;SDS011;18899;50.748;7.102;2022-09-13T04:02:56;5.97;;;2.78;;
32445;SDS011;18899;50.748;7.102;2022-09-13T04:05:22;5.75;;;3.03;;
32445;SDS011;18899;50.748;7.102;2022-09-13T04:07:47;6.00;;;3.40;;
32445;SDS011;18899;50.748;7.102;2022-09-13T04:10:13;5.88;;;3.42;;
32445;SDS011;18899;50.748;7.102;2022-09-13T04:12:39;4.78;;;3.08;;
32445;SDS011;18899;50.748;7.102;2022-09-13T04:15:05;9.27;;;3.65;;
32445;SDS011;18899;50.748;7.102;2022-09-13T04:17:31;7.15;;;3.45;;
32445;SDS011;18899;50.748;7.102;2022-09-13T04:19:57;5.50;;;3.25;;
32445;SDS011;18899;50.748;7.102;2022-09-13T04:22:22;5.72;;;3.30;;
32445;SDS011;18899;50.748;7.102;2022-09-13T04:24:48;4.38;;;3.20;;
32445;SDS011;18899;50.748;7.102;2022-09-13T04:27:13;6.63;;;3.42;;
32445;SDS011;18899;50.748;7.102;2022-09-13T04:29:39;4.78;;;3.25;;
32445;SDS011;18899;50.748;7.102;2022-09-13T04:32:05;6.97;;;3.10;;
32445;SDS011;18899;50.748;7.102;2022-09-13T04:34:30;5.32;;;3.65;;
32445;SDS011;18899;50.748;7.102;2022-09-13T04:36:56;5.97;;;3.28;;
32445;SDS011;18899;50.748;7.102;2022-09-13T04:39:21;6.93;;;3.05;;
32445;SDS011;18899;50.748;7.102;2022-09-13T04:41:48;10.52;;;3.63;;
32445;SDS011;18899;50.748;7.102;2022-09-13T04:44:15;8.27;;;3.75;;
32445;SDS011;18899;50.748;7.102;2022-09-13T04:46:42;4.43;;;3.35;;
32445;SDS011;18899;50.748;7.102;2022-09-13T04:49:10;5.38;;;3.38;;
32445;SDS011;18899;50.748;7.102;2022-09-13T04:51:36;6.35;;;3.05;;
32445;SDS011;18899;50.748;7.102;2022-09-13T04:54:01;4.13;;;3.03;;
32445;SDS011;18899;50.748;7.102;2022-09-13T04:56:27;5.15;;;3.45;;
32445;SDS011;18899;50.748;7.102;2022-09-13T04:58:53;6.95;;;3.28;;
32445;SDS011;18899;50.748;7.102;2022-09-13T05:01:20;5.03;;;3.47;;
32445;SDS011;18899;50.748;7.102;2022-09-13T05:03:46;5.75;;;3.00;;
32445;SDS011;18899;50.748;7.102;2022-09-13T05:06:15;6.38;;;3.50;;
32445;SDS011;18899;50.748;7.102;2022-09-13T05:08:48;6.88;;;2.88;;
32445;SDS011;18899;50.748;7.102;2022-09-13T05:13:41;6.20;;;2.95;;
32445;SDS011;18899;50.748;7.102;2022-09-13T05:16:07;6.82;;;2.80;;
32445;SDS011;18899;50.748;7.102;2022-09-13T05:18:33;8.43;;;3.38;;
32445;SDS011;18899;50.748;7.102;2022-09-13T05:21:00;5.38;;;3.30;;
32445;SDS011;18899;50.748;7.102;2022-09-13T05:23:29;5.22;;;3.38;;
32445;SDS011;18899;50.748;7.102;2022-09-13T05:25:59;5.40;;;3.42;;
32445;SDS011;18899;50.748;7.102;2022-09-13T05:28:28;4.70;;;2.95;;
32445;SDS011;18899;50.748;7.102;2022-09-13T05:30:59;5.13;;;3.13;;
32445;SDS011;18899;50.748;7.102;2022-09-13T05:33:37;5.30;;;3.25;;
32445;SDS011;18899;50.748;7.102;2022-09-13T05:36:04;10.50;;;3.20;;
32445;SDS011;18899;50.748;7.102;2022-09-13T05:38:30;4.85;;;2.53;;
32445;SDS011;18899;50.748;7.102;2022-09-13T05:40:56;4.15;;;2.90;;
32445;SDS011;18899;50.748;7.102;2022-09-13T05:43:24;6.75;;;3.22;;
32445;SDS011;18899;50.748;7.102;2022-09-13T05:45:51;5.65;;;3.25;;
32445;SDS011;18899;50.748;7.102;2022-09-13T05:48:28;3.97;;;2.80;;
32445;SDS011;18899;50.748;7.102;2022-09-13T05:50:55;10.63;;;3.47;;
32445;SDS011;18899;50.748;7.102;2022-09-13T05:53:20;7.63;;;2.97;;
32445;SDS011;18899;50.748;7.102;2022-09-13T05:55:46;7.55;;;3.17;;
32445;SDS011;18899;50.748;7.102;2022-09-13T05:58:11;4.05;;;3.08;;
32445;SDS011;18899;50.748;7.102;2022-09-13T06:00:37;6.38;;;3.30;;
32445;SDS011;18899;50.748;7.102;2022-09-13T06:03:02;6.70;;;3.22;;
32445;SDS011;18899;50.748;7.102;2022-09-13T06:05:28;4.93;;;3.10;;
32445;SDS011;18899;50.748;7.102;2022-09-13T06:07:54;8.77;;;2.63;;
32445;SDS011;18899;50.748;7.102;2022-09-13T06:10:19;7.00;;;3.03;;
32445;SDS011;18899;50.748;7.102;2022-09-13T06:12:45;5.45;;;2.65;;
32445;SDS011;18899;50.748;7.102;2022-09-13T06:15:11;6.57;;;3.05;;
32445;SDS011;18899;50.748;7.102;2022-09-13T06:17:37;5.75;;;3.15;;
32445;SDS011;18899;50.748;7.102;2022-09-13T06:20:02;4.43;;;2.80;;
32445;SDS011;18899;50.748;7.102;2022-09-13T06:22:29;4.57;;;2.90;;
32445;SDS011;18899;50.748;7.102;2022-09-13T06:24:57;3.63;;;2.47;;
32445;SDS011;18899;50.748;7.102;2022-09-13T06:27:23;5.45;;;2.90;;
32445;SDS011;18899;50.748;7.102;2022-09-13T06:29:49;4.68;;;2.67;;
32445;SDS011;18899;50.748;7.102;2022-09-13T06:32:15;8.88;;;3.33;;
32445;SDS011;18899;50.748;7.102;2022-09-13T06:34:40;4.82;;;2.90;;
32445;SDS011;18899;50.748;7.102;2022-09-13T06:37:06;9.13;;;2.60;;
32445;SDS011;18899;50.748;7.102;2022-09-13T06:39:31;5.40;;;2.70;;
32445;SDS011;18899;50.748;7.102;2022-09-13T06:41:58;5.28;;;2.25;;
32445;SDS011;18899;50.748;7.102;2022-09-13T06:44:24;3.85;;;2.38;;
32445;SDS011;18899;50.748;7.102;2022-09-13T06:46:49;5.25;;;2.85;;
32445;SDS011;18899;50.748;7.102;2022-09-13T06:49:15;4.75;;;2.13;;
32445;SDS011;18899;50.748;7.102;2022-09-13T06:51:40;3.90;;;2.58;;
32445;SDS011;18899;50.748;7.102;2022-09-13T06:54:06;3.50;;;1.88;;
32445;SDS011;18899;50.748;7.102;2022-09-13T06:56:32;4.13;;;2.30;;
32445;SDS011;18899;50.748;7.102;2022-09-13T06:59:00;3.65;;;2.25;;
32445;SDS011;18899;50.748;7.102;2022-09-13T07:01:36;4.72;;;2.60;;
32445;SDS011;18899;50.748;7.102;2022-09-13T07:04:04;5.63;;;2.58;;
32445;SDS011;18899;50.748;7.102;2022-09-13T07:06:36;3.10;;;2.22;;
32445;SDS011;18899;50.748;7.102;2022-09-13T07:09:04;4.07;;;2.55;;
32445;SDS011;18899;50.748;7.102;2022-09-13T07:11:35;5.33;;;2.20;;
32445;SDS011;18899;50.748;7.102;2022-09-13T07:14:02;4.82;;;2.38;;
32445;SDS011;18899;50.748;7.102;2022-09-13T07:16:29;9.57;;;4.32;;
32445;SDS011;18899;50.748;7.102;2022-09-13T07:18:57;6.38;;;4.00;;
32445;SDS011;18899;50.748;7.102;2022-09-13T07:21:29;7.20;;;3.65;;
32445;SDS011;18899;50.748;7.102;2022-09-13T07:23:55;4.00;;;2.70;;
32445;SDS011;18899;50.748;7.102;2022-09-13T07:26:21;6.13;;;2.90;;
32445;SDS011;18899;50.748;7.102;2022-09-13T07:28:48;4.97;;;3.08;;
32445;SDS011;18899;50.748;7.102;2022-09-13T07:31:23;5.03;;;2.30;;
32445;SDS011;18899;50.748;7.102;2022-09-13T07:33:55;3.58;;;1.80;;
32445;SDS011;18899;50.748;7.102;2022-09-13T07:36:23;10.25;;;2.50;;
32445;SDS011;18899;50.748;7.102;2022-09-13T07:38:49;4.47;;;2.20;;
32445;SDS011;18899;50.748;7.102;2022-09-13T07:41:15;6.72;;;2.38;;
32445;SDS011;18899;50.748;7.102;2022-09-13T07:43:43;3.55;;;2.00;;
32445;SDS011;18899;50.748;7.102;2022-09-13T07:46:10;5.70;;;2.38;;
32445;SDS011;18899;50.748;7.102;2022-09-13T07:48:38;5.00;;;2.10;;
32445;SDS011;18899;50.748;7.102;2022-09-13T07:51:07;3.55;;;2.00;;
32445;SDS011;18899;50.748;7.102;2022-09-13T07:53:35;3.47;;;2.10;;
32445;SDS011;18899;50.748;7.102;2022-09-13T07:58:32;2.90;;;1.83;;
32445;SDS011;18899;50.748;7.102;2022-09-13T08:01:20;7.18;;;2.08;;
32445;SDS011;18899;50.748;7.102;2022-09-13T08:03:57;5.82;;;2.10;;
32445;SDS011;18899;50.748;7.102;2022-09-13T08:06:23;3.95;;;1.60;;
32445;SDS011;18899;50.748;7.102;2022-09-13T08:08:51;4.40;;;1.80;;
32445;SDS011;18899;50.748;7.102;2022-09-13T08:11:18;2.60;;;1.65;;
32445;SDS011;18899;50.748;7.102;2022-09-13T08:13:49;8.15;;;1.50;;
32445;SDS011;18899;50.748;7.102;2022-09-13T08:16:16;2.58;;;1.70;;
32445;SDS011;18899;50.748;7.102;2022-09-13T08:18:43;6.70;;;1.65;;
32445;SDS011;18899;50.748;7.102;2022-09-13T08:21:09;5.28;;;1.85;;
32445;SDS011;18899;50.748;7.102;2022-09-13T08:23:35;6.57;;;1.52;;
32445;SDS011;18899;50.748;7.102;2022-09-13T08:26:01;3.05;;;1.83;;
32445;SDS011;18899;50.748;7.102;2022-09-13T08:28:27;3.40;;;1.70;;
32445;SDS011;18899;50.748;7.102;2022-09-13T08:30:53;4.00;;;1.60;;
32445;SDS011;18899;50.748;7.102;2022-09-13T08:33:19;2.60;;;1.30;;
32445;SDS011;18899;50.748;7.102;2022-09-13T08:35:51;4.13;;;1.75;;
32445;SDS011;18899;50.748;7.102;2022-09-13T08:38:17;2.75;;;1.73;;
32445;SDS011;18899;50.748;7.102;2022-09-13T08:40:53;3.95;;;1.58;;
32445;SDS011;18899;50.748;7.102;2022-09-13T08:46:26;2.35;;;1.33;;
32445;SDS011;18899;50.748;7.102;2022-09-13T08:49:00;2.10;;;1.65;;
32445;SDS011;18899;50.748;7.102;2022-09-13T08:54:13;3.80;;;1.42;;
32445;SDS011;18899;50.748;7.102;2022-09-13T08:59:20;7.43;;;1.25;;
32445;SDS011;18899;50.748;7.102;2022-09-13T09:02:27;2.67;;;1.40;;
32445;SDS011;18899;50.748;7.102;2022-09-13T09:05:24;3.28;;;1.40;;
32445;SDS011;18899;50.748;7.102;2022-09-13T09:08:00;2.08;;;1.15;;
32445;SDS011;18899;50.748;7.102;2022-09-13T09:12:58;3.35;;;1.52;;
32445;SDS011;18899;50.748;7.102;2022-09-13T09:15:39;4.00;;;1.27;;
32445;SDS011;18899;50.748;7.102;2022-09-13T09:23:24;3.90;;;1.23;;
32445;SDS011;18899;50.748;7.102;2022-09-13T09:26:14;2.67;;;1.60;;
32445;SDS011;18899;50.748;7.102;2022-09-13T09:28:42;3.50;;;1.20;;
32445;SDS011;18899;50.748;7.102;2022-09-13T09:31:15;5.10;;;1.30;;
32445;SDS011;18899;50.748;7.102;2022-09-13T09:36:40;1.80;;;1.00;;
32445;SDS011;18899;50.748;7.102;2022-09-13T09:39:13;2.45;;;1.00;;
32445;SDS011;18899;50.748;7.102;2022-09-13T09:41:40;4.70;;;1.40;;
32445;SDS011;18899;50.748;7.102;2022-09-13T09:44:21;2.65;;;1.38;;
32445;SDS011;18899;50.748;7.102;2022-09-13T09:49:52;3.05;;;1.30;;
32445;SDS011;18899;50.748;7.102;2022-09-13T09:52:40;3.28;;;1.13;;
32445;SDS011;18899;50.748;7.102;2022-09-13T09:55:31;1.90;;;1.20;;
32445;SDS011;18899;50.748;7.102;2022-09-13T09:58:05;3.78;;;1.38;;
32445;SDS011;18899;50.748;7.102;2022-09-13T10:00:54;3.08;;;1.33;;
32445;SDS011;18899;50.748;7.102;2022-09-13T10:03:25;2.78;;;1.13;;
32445;SDS011;18899;50.748;7.102;2022-09-13T10:06:09;2.28;;;1.00;;
32445;SDS011;18899;50.748;7.102;2022-09-13T10:08:39;1.42;;;0.93;;
32445;SDS011;18899;50.748;7.102;2022-09-13T10:11:05;5.57;;;1.17;;
32445;SDS011;18899;50.748;7.102;2022-09-13T10:13:32;6.05;;;0.90;;
32445;SDS011;18899;50.748;7.102;2022-09-13T10:15:59;2.20;;;1.10;;
32445;SDS011;18899;50.748;7.102;2022-09-13T10:18:27;2.08;;;1.08;;
32445;SDS011;18899;50.748;7.102;2022-09-13T10:21:04;3.60;;;1.05;;
32445;SDS011;18899;50.748;7.102;2022-09-13T10:23:42;2.05;;;1.25;;
32445;SDS011;18899;50.748;7.102;2022-09-13T10:26:09;2.15;;;1.10;;
32445;SDS011;18899;50.748;7.102;2022-09-13T10:28:43;3.55;;;1.35;;
32445;SDS011;18899;50.748;7.102;2022-09-13T10:31:32;2.95;;;1.10;;
32445;SDS011;18899;50.748;7.102;2022-09-13T10:34:04;5.53;;;1.10;;
32445;SDS011;18899;50.748;7.102;2022-09-13T10:36:36;5.40;;;1.17;;
32445;SDS011;18899;50.748;7.102;2022-09-13T10:39:07;1.67;;;0.95;;
32445;SDS011;18899;50.748;7.102;2022-09-13T10:41:41;1.90;;;1.23;;
32445;SDS011;18899;50.748;7.102;2022-09-13T10:46:50;2.42;;;1.20;;
32445;SDS011;18899;50.748;7.102;2022-09-13T10:54:52;4.05;;;1.40;;
32445;SDS011;18899;50.748;7.102;2022-09-13T10:57:33;3.90;;;1.42;;
32445;SDS011;18899;50.748;7.102;2022-09-13T11:00:00;4.68;;;1.40;;
32445;SDS011;18899;50.748;7.102;2022-09-13T11:16:05;2.58;;;1.10;;
32445;SDS011;18899;50.748;7.102;2022-09-13T11:18:55;6.65;;;1.38;;
32445;SDS011;18899;50.748;7.102;2022-09-13T11:30:23;12.23;;;1.40;;
32445;SDS011;18899;50.748;7.102;2022-09-13T11:35:48;1.73;;;1.20;;
32445;SDS011;18899;50.748;7.102;2022-09-13T11:38:32;2.92;;;1.33;;
32445;SDS011;18899;50.748;7.102;2022-09-13T11:49:17;3.23;;;1.20;;
32445;SDS011;18899;50.748;7.102;2022-09-13T11:54:51;4.40;;;1.23;;
32445;SDS011;18899;50.748;7.102;2022-09-13T11:57:28;2.70;;;1.10;;
32445;SDS011;18899;50.748;7.102;2022-09-13T12:00:05;2.08;;;1.10;;
32445;SDS011;18899;50.748;7.102;2022-09-13T12:08:49;3.55;;;1.30;;
32445;SDS011;18899;50.748;7.102;2022-09-13T12:11:22;2.55;;;1.23;;
32445;SDS011;18899;50.748;7.102;2022-09-13T12:13:54;3.55;;;1.30;;
32445;SDS011;18899;50.748;7.102;2022-09-13T12:16:25;4.60;;;1.30;;
32445;SDS011;18899;50.748;7.102;2022-09-13T12:18:56;4.18;;;1.10;;
32445;SDS011;18899;50.748;7.102;2022-09-13T12:21:30;1.90;;;1.10;;
32445;SDS011;18899;50.748;7.102;2022-09-13T12:26:28;9.45;;;1.20;;
32445;SDS011;18899;50.748;7.102;2022-09-13T12:28:57;3.53;;;1.30;;
32445;SDS011;18899;50.748;7.102;2022-09-13T12:31:26;3.10;;;1.40;;
32445;SDS011;18899;50.748;7.102;2022-09-13T12:33:55;7.35;;;1.50;;
32445;SDS011;18899;50.748;7.102;2022-09-13T12:36:39;7.38;;;1.40;;
32445;SDS011;18899;50.748;7.102;2022-09-13T12:51:12;3.50;;;1.13;;
32445;SDS011;18899;50.748;7.102;2022-09-13T13:01:47;1.98;;;0.98;;
32445;SDS011;18899;50.748;7.102;2022-09-13T13:04:18;3.75;;;1.38;;
32445;SDS011;18899;50.748;7.102;2022-09-13T13:06:53;2.25;;;1.10;;
32445;SDS011;18899;50.748;7.102;2022-09-13T13:09:37;2.67;;;1.00;;
32445;SDS011;18899;50.748;7.102;2022-09-13T13:12:07;2.63;;;1.20;;
32445;SDS011;18899;50.748;7.102;2022-09-13T13:20:37;2.83;;;1.00;;
32445;SDS011;18899;50.748;7.102;2022-09-13T13:31:10;2.55;;;1.00;;
32445;SDS011;18899;50.748;7.102;2022-09-13T13:39:08;2.80;;;1.00;;
32445;SDS011;18899;50.748;7.102;2022-09-13T13:57:24;2.95;;;1.10;;
32445;SDS011;18899;50.748;7.102;2022-09-13T13:59:55;2.83;;;0.93;;
32445;SDS011;18899;50.748;7.102;2022-09-13T14:16:24;4.30;;;0.88;;
32445;SDS011;18899;50.748;7.102;2022-09-13T14:21:38;2.35;;;0.93;;
32445;SDS011;18899;50.748;7.102;2022-09-13T14:24:25;1.98;;;0.90;;
32445;SDS011;18899;50.748;7.102;2022-09-13T14:26:51;1.58;;;1.00;;
32445;SDS011;18899;50.748;7.102;2022-09-13T14:31:48;1.52;;;0.90;;
32445;SDS011;18899;50.748;7.102;2022-09-13T14:34:20;2.80;;;1.08;;
32445;SDS011;18899;50.748;7.102;2022-09-13T14:36:58;2.85;;;1.00;;
32445;SDS011;18899;50.748;7.102;2022-09-13T14:39:29;1.17;;;0.77;;
32445;SDS011;18899;50.748;7.102;2022-09-13T14:41:59;1.30;;;0.60;;
32445;SDS011;18899;50.748;7.102;2022-09-13T14:44:26;2.35;;;0.90;;
32445;SDS011;18899;50.748;7.102;2022-09-13T14:46:55;2.15;;;0.80;;
32445;SDS011;18899;50.748;7.102;2022-09-13T14:49:57;3.70;;;1.00;;
32445;SDS011;18899;50.748;7.102;2022-09-13T14:52:29;1.85;;;0.70;;
32445;SDS011;18899;50.748;7.102;2022-09-13T14:55:04;2.42;;;0.95;;
32445;SDS011;18899;50.748;7.102;2022-09-13T14:57:38;1.85;;;1.10;;
32445;SDS011;18899;50.748;7.102;2022-09-13T15:02:46;2.78;;;1.00;;
32445;SDS011;18899;50.748;7.102;2022-09-13T15:05:19;1.55;;;0.93;;
32445;SDS011;18899;50.748;7.102;2022-09-13T15:07:47;3.38;;;1.08;;
32445;SDS011;18899;50.748;7.102;2022-09-13T15:15:38;8.55;;;1.02;;
32445;SDS011;18899;50.748;7.102;2022-09-13T15:20:48;1.83;;;1.17;;
32445;SDS011;18899;50.748;7.102;2022-09-13T15:23:17;1.80;;;1.10;;
32445;SDS011;18899;50.748;7.102;2022-09-13T15:25:54;1.92;;;1.00;;
32445;SDS011;18899;50.748;7.102;2022-09-13T15:28:27;2.53;;;1.15;;
32445;SDS011;18899;50.748;7.102;2022-09-13T15:30:56;2.20;;;1.10;;
32445;SDS011;18899;50.748;7.102;2022-09-13T15:33:27;3.72;;;1.27;;
32445;SDS011;18899;50.748;7.102;2022-09-13T15:36:24;1.50;;;0.98;;
32445;SDS011;18899;50.748;7.102;2022-09-13T15:41:26;3.92;;;1.67;;
32445;SDS011;18899;50.748;7.102;2022-09-13T15:43:55;2.28;;;1.20;;
32445;SDS011;18899;50.748;7.102;2022-09-13T15:46:21;2.88;;;1.10;;
32445;SDS011;18899;50.748;7.102;2022-09-13T15:48:50;2.42;;;1.10;;
32445;SDS011;18899;50.748;7.102;2022-09-13T15:51:18;1.80;;;1.23;;
32445;SDS011;18899;50.748;7.102;2022-09-13T15:53:44;4.53;;;1.63;;
32445;SDS011;18899;50.748;7.102;2022-09-13T15:56:18;4.38;;;1.42;;
32445;SDS011;18899;50.748;7.102;2022-09-13T15:58:45;2.35;;;1.00;;
32445;SDS011;18899;50.748;7.102;2022-09-13T16:01:12;4.57;;;1.05;;
32445;SDS011;18899;50.748;7.102;2022-09-13T16:03:38;3.35;;;1.05;;
32445;SDS011;18899;50.748;7.102;2022-09-13T16:06:04;4.43;;;1.20;;
32445;SDS011;18899;50.748;7.102;2022-09-13T16:08:33;1.50;;;1.00;;
32445;SDS011;18899;50.748;7.102;2022-09-13T16:10:59;4.50;;;1.75;;
32445;SDS011;18899;50.748;7.102;2022-09-13T16:13:25;2.88;;;1.30;;
32445;SDS011;18899;50.748;7.102;2022-09-13T16:15:50;4.05;;;1.33;;
32445;SDS011;18899;50.748;7.102;2022-09-13T16:18:16;6.15;;;1.17;;
32445;SDS011;18899;50.748;7.102;2022-09-13T16:20:42;2.08;;;1.15;;
32445;SDS011;18899;50.748;7.102;2022-09-13T16:23:08;1.55;;;0.93;;
32445;SDS011;18899;50.748;7.102;2022-09-13T16:25:34;1.77;;;1.15;;
32445;SDS011;18899;50.748;7.102;2022-09-13T16:28:00;2.15;;;1.15;;
32445;SDS011;18899;50.748;7.102;2022-09-13T16:30:26;5.05;;;1.63;;
32445;SDS011;18899;50.748;7.102;2022-09-13T16:32:54;3.70;;;1.38;;
32445;SDS011;18899;50.748;7.102;2022-09-13T16:35:20;5.88;;;1.50;;
32445;SDS011;18899;50.748;7.102;2022-09-13T16:37:46;10.70;;;1.70;;
32445;SDS011;18899;50.748;7.102;2022-09-13T16:40:15;4.95;;;1.77;;
32445;SDS011;18899;50.748;7.102;2022-09-13T16:42:42;5.32;;;1.67;;
32445;SDS011;18899;50.748;7.102;2022-09-13T16:45:08;4.45;;;1.83;;
32445;SDS011;18899;50.748;7.102;2022-09-13T16:47:34;4.65;;;1.60;;
32445;SDS011;18899;50.748;7.102;2022-09-13T16:50:00;3.70;;;1.63;;
32445;SDS011;18899;50.748;7.102;2022-09-13T16:52:27;3.45;;;1.77;;
32445;SDS011;18899;50.748;7.102;2022-09-13T16:54:53;5.22;;;1.98;;
32445;SDS011;18899;50.748;7.102;2022-09-13T16:57:19;3.63;;;1.70;;
32445;SDS011;18899;50.748;7.102;2022-09-13T16:59:45;4.03;;;1.73;;
32445;SDS011;18899;50.748;7.102;2022-09-13T17:02:12;3.30;;;1.65;;
32445;SDS011;18899;50.748;7.102;2022-09-13T17:04:38;5.97;;;2.05;;
32445;SDS011;18899;50.748;7.102;2022-09-13T17:07:03;3.22;;;1.88;;
32445;SDS011;18899;50.748;7.102;2022-09-13T17:09:32;4.25;;;2.08;;
32445;SDS011;18899;50.748;7.102;2022-09-13T17:11:58;7.00;;;2.42;;
32445;SDS011;18899;50.748;7.102;2022-09-13T17:14:23;5.47;;;2.28;;
32445;SDS011;18899;50.748;7.102;2022-09-13T17:16:50;4.10;;;2.15;;
32445;SDS011;18899;50.748;7.102;2022-09-13T17:19:19;4.25;;;2.25;;
32445;SDS011;18899;50.748;7.102;2022-09-13T17:21:46;3.60;;;2.20;;
32445;SDS011;18899;50.748;7.102;2022-09-13T17:24:12;7.78;;;2.10;;
32445;SDS011;18899;50.748;7.102;2022-09-13T17:26:38;5.60;;;2.30;;
32445;SDS011;18899;50.748;7.102;2022-09-13T17:29:05;3.75;;;2.13;;
32445;SDS011;18899;50.748;7.102;2022-09-13T17:31:30;4.68;;;2.30;;
32445;SDS011;18899;50.748;7.102;2022-09-13T17:33:56;5.15;;;1.90;;
32445;SDS011;18899;50.748;7.102;2022-09-13T17:36:22;5.53;;;2.30;;
32445;SDS011;18899;50.748;7.102;2022-09-13T17:38:47;3.33;;;2.35;;
32445;SDS011;18899;50.748;7.102;2022-09-13T17:41:14;6.10;;;2.22;;
32445;SDS011;18899;50.748;7.102;2022-09-13T17:43:42;3.70;;;2.50;;
32445;SDS011;18899;50.748;7.102;2022-09-13T17:46:14;6.07;;;2.20;;
32445;SDS011;18899;50.748;7.102;2022-09-13T17:48:42;5.65;;;2.97;;
32445;SDS011;18899;50.748;7.102;2022-09-13T17:51:09;5.22;;;3.10;;
32445;SDS011;18899;50.748;7.102;2022-09-13T17:53:37;4.60;;;3.13;;
32445;SDS011;18899;50.748;7.102;2022-09-13T17:56:04;6.15;;;3.28;;
32445;SDS011;18899;50.748;7.102;2022-09-13T17:58:31;8.15;;;3.42;;
32445;SDS011;18899;50.748;7.102;2022-09-13T18:01:05;9.10;;;3.60;;
32445;SDS011;18899;50.748;7.102;2022-09-13T18:03:32;6.28;;;3.90;;
32445;SDS011;18899;50.748;7.102;2022-09-13T18:06:00;7.38;;;3.55;;
32445;SDS011;18899;50.748;7.102;2022-09-13T18:08:27;8.32;;;4.05;;
32445;SDS011;18899;50.748;7.102;2022-09-13T18:10:54;9.02;;;3.90;;
32445;SDS011;18899;50.748;7.102;2022-09-13T18:13:25;9.80;;;4.60;;
32445;SDS011;18899;50.748;7.102;2022-09-13T18:16:24;8.57;;;4.25;;
32445;SDS011;18899;50.748;7.102;2022-09-13T18:18:46;6.55;;;3.85;;
32445;SDS011;18899;50.748;7.102;2022-09-13T18:21:13;10.50;;;4.10;;
32445;SDS011;18899;50.748;7.102;2022-09-13T18:23:40;7.68;;;4.38;;
32445;SDS011;18899;50.748;7.102;2022-09-13T18:26:07;7.88;;;3.80;;
32445;SDS011;18899;50.748;7.102;2022-09-13T18:28:35;9.35;;;3.72;;
32445;SDS011;18899;50.748;7.102;2022-09-13T18:31:02;6.30;;;3.83;;
32445;SDS011;18899;50.748;7.102;2022-09-13T18:33:33;8.30;;;3.92;;
32445;SDS011;18899;50.748;7.102;2022-09-13T18:36:00;6.15;;;3.85;;
32445;SDS011;18899;50.748;7.102;2022-09-13T18:40:59;5.25;;;3.70;;
32445;SDS011;18899;50.748;7.102;2022-09-13T18:43:39;8.10;;;3.70;;
32445;SDS011;18899;50.748;7.102;2022-09-13T18:46:07;6.13;;;2.78;;
32445;SDS011;18899;50.748;7.102;2022-09-13T18:48:39;7.10;;;4.45;;
32445;SDS011;18899;50.748;7.102;2022-09-13T18:51:10;9.85;;;3.45;;